Richard Brusco — WDC3031 — position and weather

sailwx.info

Track history (hours):
 
Tides and Currents Weather Stations Pressure Air Temp Water Temp Dewpoint Dewpoint Depression Visibility Wind Speed Wind Dir Waves Ship Positions

Richard Brusco

Owner: Brusco Tug & Barge, Inc., Longview, WA. More information available from US FCC via Universal Licensing System and Coast Guard Vessel Documentation Center.

Last reported at 2018-Jan-12 14:59 UTC. Time now 2018-Jan-23 06:09 UTC.
Position N 48°55' W 123°11'.
Warning: this ship's position is 10 days out of date.

Length 32 m; draft 4 m.

Type: Tow > 200 m length. MMSI: 367001790.

Date/timePositionNaut miles runAvg speedWind from/ knotsBaromVisibWave heightAir tempDewpointWater temp
2018-Jan-12 14:59N 48°55' W 123°11'510.6
2018-Jan-12 14:30N 48°59' W 123°17'510.4
2018-Jan-12 14:00N 49°03' W 123°23'710.4
2018-Jan-12 13:18N 49°07' W 123°31'3 9.9
2018-Jan-12 13:00N 49°10' W 123°34'47 9.9
2018-Jan-12 08:13N 49°38' W 124°32'210.1
2018-Jan-12 07:59N 49°40' W 124°34'510.4
2018-Jan-12 07:30N 49°43' W 124°41'510.2
2018-Jan-12 07:00N 49°46' W 124°47'5 9.9
2018-Jan-12 06:30N 49°49' W 124°53'510.2
2018-Jan-12 06:00N 49°52' W 124°59'510.4
2018-Jan-12 05:30N 49°55' W 125°05'510.5
2018-Jan-12 05:00N 49°59' W 125°12'611.9
2018-Jan-12 04:30N 50°04' W 125°15'510.2
2018-Jan-12 04:00N 50°08' W 125°21'5 9.4
2018-Jan-12 03:29N 50°13' W 125°23'3 5.8
2018-Jan-12 03:00N 50°15' W 125°24'73 7.7
2018-Jan-11 17:32N 50°46' W 127°08'1 9.1
2018-Jan-11 17:29N 50°46' W 127°09'4 9.3
2018-Jan-11 17:00N 50°49' W 127°14'5 9.7
2018-Jan-11 16:30N 50°52' W 127°20'510.3
2018-Jan-11 16:00N 50°55' W 127°26'510.2
2018-Jan-11 15:30N 50°58' W 127°32'5 9.6
2018-Jan-11 14:59N 51°02' W 127°38'5 9.9
2018-Jan-11 14:29N 51°05' W 127°44'510.1
2018-Jan-11 14:00N 51°09' W 127°50'510.1
2018-Jan-11 13:30N 51°13' W 127°52'610.0
2018-Jan-11 12:55N 51°19' W 127°56'4 9.7
2018-Jan-11 12:30N 51°22' W 127°58'5 9.7
2018-Jan-11 12:00N 51°26' W 128°04'5 9.5
2018-Jan-11 11:30N 51°29' W 128°10'5 9.5
2018-Jan-11 11:00N 51°33' W 128°14'510.0
2018-Jan-11 10:30N 51°37' W 128°19'5 9.9
2018-Jan-11 10:00N 51°41' W 128°23'5 9.6
2018-Jan-11 09:30N 51°45' W 128°27'5 9.4
2018-Jan-11 09:00N 51°49' W 128°31'5 9.9
2018-Jan-11 08:30N 51°54' W 128°34'5 9.7
2018-Jan-11 08:00N 51°58' W 128°37'107 9.8
2018-Jan-10 21:03N 53°31' W 130°06'1810.4
2018-Jan-10 19:22N 53°41' W 130°30'710.2
2018-Jan-10 18:39N 53°46' W 130°39'210.1
2018-Jan-10 18:25N 53°48' W 130°42'410.1
2018-Jan-10 18:00N 53°50' W 130°47'5 9.7
2018-Jan-10 17:30N 53°54' W 130°53'5 8.8
2018-Jan-10 16:58N 53°58' W 130°58'4 9.2
2018-Jan-10 16:30N 54°02' W 130°60'5 9.4
2018-Jan-10 16:00N 54°06' W 131°01'5 9.8
2018-Jan-10 15:30N 54°11' W 131°02'510.0
2018-Jan-10 15:00N 54°16' W 131°03'  
Track history (hours):
 
Tides and Currents Weather Stations Pressure Air Temp Water Temp Dewpoint Dewpoint Depression Visibility Wind Speed Wind Dir Waves Ship Positions

Richard Brusco

Owner: Brusco Tug & Barge, Inc., Longview, WA. More information available from US FCC via Universal Licensing System and Coast Guard Vessel Documentation Center.

Last reported at 2018-Jan-12 14:59 UTC. Time now 2018-Jan-23 06:09 UTC.
Position N 48°55' W 123°11'.
Warning: this ship's position is 10 days out of date.

Length 32 m; draft 4 m.

Type: Tow > 200 m length. MMSI: 367001790.

Date/timePositionNaut miles runAvg speedWind from/ knotsBaromVisibWave heightAir tempDewpointWater temp
2018-Jan-12 14:59N 48°55' W 123°11'510.6
2018-Jan-12 14:30N 48°59' W 123°17'510.4
2018-Jan-12 14:00N 49°03' W 123°23'710.4
2018-Jan-12 13:18N 49°07' W 123°31'3 9.9
2018-Jan-12 13:00N 49°10' W 123°34'47 9.9
2018-Jan-12 08:13N 49°38' W 124°32'210.1
2018-Jan-12 07:59N 49°40' W 124°34'510.4
2018-Jan-12 07:30N 49°43' W 124°41'510.2
2018-Jan-12 07:00N 49°46' W 124°47'5 9.9
2018-Jan-12 06:30N 49°49' W 124°53'510.2
2018-Jan-12 06:00N 49°52' W 124°59'510.4
2018-Jan-12 05:30N 49°55' W 125°05'510.5
2018-Jan-12 05:00N 49°59' W 125°12'611.9
2018-Jan-12 04:30N 50°04' W 125°15'510.2
2018-Jan-12 04:00N 50°08' W 125°21'5 9.4
2018-Jan-12 03:29N 50°13' W 125°23'3 5.8
2018-Jan-12 03:00N 50°15' W 125°24'73 7.7
2018-Jan-11 17:32N 50°46' W 127°08'1 9.1
2018-Jan-11 17:29N 50°46' W 127°09'4 9.3
2018-Jan-11 17:00N 50°49' W 127°14'5 9.7
2018-Jan-11 16:30N 50°52' W 127°20'510.3
2018-Jan-11 16:00N 50°55' W 127°26'510.2
2018-Jan-11 15:30N 50°58' W 127°32'5 9.6
2018-Jan-11 14:59N 51°02' W 127°38'5 9.9
2018-Jan-11 14:29N 51°05' W 127°44'510.1
2018-Jan-11 14:00N 51°09' W 127°50'510.1
2018-Jan-11 13:30N 51°13' W 127°52'610.0
2018-Jan-11 12:55N 51°19' W 127°56'4 9.7
2018-Jan-11 12:30N 51°22' W 127°58'5 9.7
2018-Jan-11 12:00N 51°26' W 128°04'5 9.5
2018-Jan-11 11:30N 51°29' W 128°10'5 9.5
2018-Jan-11 11:00N 51°33' W 128°14'510.0
2018-Jan-11 10:30N 51°37' W 128°19'5 9.9
2018-Jan-11 10:00N 51°41' W 128°23'5 9.6
2018-Jan-11 09:30N 51°45' W 128°27'5 9.4
2018-Jan-11 09:00N 51°49' W 128°31'5 9.9
2018-Jan-11 08:30N 51°54' W 128°34'5 9.7
2018-Jan-11 08:00N 51°58' W 128°37'107 9.8
2018-Jan-10 21:03N 53°31' W 130°06'1810.4
2018-Jan-10 19:22N 53°41' W 130°30'710.2
2018-Jan-10 18:39N 53°46' W 130°39'210.1
2018-Jan-10 18:25N 53°48' W 130°42'410.1
2018-Jan-10 18:00N 53°50' W 130°47'5 9.7
2018-Jan-10 17:30N 53°54' W 130°53'5 8.8
2018-Jan-10 16:58N 53°58' W 130°58'4 9.2
2018-Jan-10 16:30N 54°02' W 130°60'5 9.4
2018-Jan-10 16:00N 54°06' W 131°01'5 9.8
2018-Jan-10 15:30N 54°11' W 131°02'510.0
2018-Jan-10 15:00N 54°16' W 131°03'  

Dump ship's entire track history